sensor_id;sensor_type;location;lat;lon;timestamp;temperature;humidity
80958;DHT22;70419;42.700;23.316;2023-09-18T00:00:23;18.40;70.70
80958;DHT22;70419;42.700;23.316;2023-09-18T00:02:49;18.50;70.70
80958;DHT22;70419;42.700;23.316;2023-09-18T00:05:15;18.50;70.60
80958;DHT22;70419;42.700;23.316;2023-09-18T00:07:59;18.50;70.60
80958;DHT22;70419;42.700;23.316;2023-09-18T00:10:26;18.40;70.60
80958;DHT22;70419;42.700;23.316;2023-09-18T00:12:51;18.50;70.80
80958;DHT22;70419;42.700;23.316;2023-09-18T00:15:37;18.40;71.00
80958;DHT22;70419;42.700;23.316;2023-09-18T00:18:04;18.50;70.80
80958;DHT22;70419;42.700;23.316;2023-09-18T00:20:33;18.50;70.80
80958;DHT22;70419;42.700;23.316;2023-09-18T00:22:58;18.50;70.80
80958;DHT22;70419;42.700;23.316;2023-09-18T00:25:24;18.50;70.60
80958;DHT22;70419;42.700;23.316;2023-09-18T00:27:50;18.50;70.30
80958;DHT22;70419;42.700;23.316;2023-09-18T00:30:17;18.50;70.40
80958;DHT22;70419;42.700;23.316;2023-09-18T00:32:43;18.50;70.50
80958;DHT22;70419;42.700;23.316;2023-09-18T00:35:09;18.50;70.70
80958;DHT22;70419;42.700;23.316;2023-09-18T00:37:34;18.50;70.50
80958;DHT22;70419;42.700;23.316;2023-09-18T00:40:02;18.50;70.40
80958;DHT22;70419;42.700;23.316;2023-09-18T00:42:30;18.50;70.20
80958;DHT22;70419;42.700;23.316;2023-09-18T00:44:56;18.60;69.60
80958;DHT22;70419;42.700;23.316;2023-09-18T00:47:22;18.60;69.20
80958;DHT22;70419;42.700;23.316;2023-09-18T00:49:49;18.60;69.20
80958;DHT22;70419;42.700;23.316;2023-09-18T00:52:17;18.60;69.00
80958;DHT22;70419;42.700;23.316;2023-09-18T00:54:44;18.60;69.20
80958;DHT22;70419;42.700;23.316;2023-09-18T00:57:10;18.60;69.30
80958;DHT22;70419;42.700;23.316;2023-09-18T00:59:37;18.60;69.20
80958;DHT22;70419;42.700;23.316;2023-09-18T01:02:03;18.60;69.50
80958;DHT22;70419;42.700;23.316;2023-09-18T01:04:29;18.60;69.50
80958;DHT22;70419;42.700;23.316;2023-09-18T01:06:56;18.50;69.70
80958;DHT22;70419;42.700;23.316;2023-09-18T01:09:23;18.60;69.70
80958;DHT22;70419;42.700;23.316;2023-09-18T01:11:51;18.70;69.30
80958;DHT22;70419;42.700;23.316;2023-09-18T01:14:29;18.60;69.10
80958;DHT22;70419;42.700;23.316;2023-09-18T01:16:58;18.70;69.10
80958;DHT22;70419;42.700;23.316;2023-09-18T01:19:38;18.60;69.00
80958;DHT22;70419;42.700;23.316;2023-09-18T01:22:11;18.60;69.00
80958;DHT22;70419;42.700;23.316;2023-09-18T01:24:38;18.60;68.80
80958;DHT22;70419;42.700;23.316;2023-09-18T01:27:07;18.50;69.10
80958;DHT22;70419;42.700;23.316;2023-09-18T01:29:33;18.40;69.50
80958;DHT22;70419;42.700;23.316;2023-09-18T01:31:59;18.50;69.50
80958;DHT22;70419;42.700;23.316;2023-09-18T01:34:34;18.40;69.60
80958;DHT22;70419;42.700;23.316;2023-09-18T01:37:05;18.40;69.60
80958;DHT22;70419;42.700;23.316;2023-09-18T01:39:34;18.50;68.90
80958;DHT22;70419;42.700;23.316;2023-09-18T01:42:02;18.50;69.00
80958;DHT22;70419;42.700;23.316;2023-09-18T01:44:29;18.50;69.00
80958;DHT22;70419;42.700;23.316;2023-09-18T01:46:58;18.40;69.20
80958;DHT22;70419;42.700;23.316;2023-09-18T01:49:35;18.30;69.80
80958;DHT22;70419;42.700;23.316;2023-09-18T01:52:01;18.40;69.50
80958;DHT22;70419;42.700;23.316;2023-09-18T01:54:28;18.40;69.10
80958;DHT22;70419;42.700;23.316;2023-09-18T01:56:53;18.20;69.70
80958;DHT22;70419;42.700;23.316;2023-09-18T01:59:20;18.30;69.60
80958;DHT22;70419;42.700;23.316;2023-09-18T02:01:47;18.20;69.40
80958;DHT22;70419;42.700;23.316;2023-09-18T02:04:13;18.40;69.20
80958;DHT22;70419;42.700;23.316;2023-09-18T02:06:39;18.30;69.30
80958;DHT22;70419;42.700;23.316;2023-09-18T02:09:05;18.20;69.40
80958;DHT22;70419;42.700;23.316;2023-09-18T02:11:33;18.20;69.50
80958;DHT22;70419;42.700;23.316;2023-09-18T02:13:59;18.20;69.40
80958;DHT22;70419;42.700;23.316;2023-09-18T02:16:24;18.30;69.30
80958;DHT22;70419;42.700;23.316;2023-09-18T02:18:54;18.40;69.00
80958;DHT22;70419;42.700;23.316;2023-09-18T02:21:21;18.30;69.10
80958;DHT22;70419;42.700;23.316;2023-09-18T02:23:51;18.30;69.00
80958;DHT22;70419;42.700;23.316;2023-09-18T02:26:18;18.30;69.00
80958;DHT22;70419;42.700;23.316;2023-09-18T02:28:44;18.30;68.80
80958;DHT22;70419;42.700;23.316;2023-09-18T02:31:10;18.30;68.90
80958;DHT22;70419;42.700;23.316;2023-09-18T02:33:36;18.30;68.90
80958;DHT22;70419;42.700;23.316;2023-09-18T02:36:02;18.40;68.50
80958;DHT22;70419;42.700;23.316;2023-09-18T02:38:28;18.30;68.70
80958;DHT22;70419;42.700;23.316;2023-09-18T02:40:55;18.30;68.60
80958;DHT22;70419;42.700;23.316;2023-09-18T02:43:22;18.30;68.80
80958;DHT22;70419;42.700;23.316;2023-09-18T02:45:49;18.30;68.70
80958;DHT22;70419;42.700;23.316;2023-09-18T02:48:14;18.30;69.10
80958;DHT22;70419;42.700;23.316;2023-09-18T02:50:40;18.20;69.20
80958;DHT22;70419;42.700;23.316;2023-09-18T02:53:07;18.20;69.10
80958;DHT22;70419;42.700;23.316;2023-09-18T02:55:34;18.20;69.90
80958;DHT22;70419;42.700;23.316;2023-09-18T02:58:00;18.30;68.80
80958;DHT22;70419;42.700;23.316;2023-09-18T03:00:26;18.30;68.80
80958;DHT22;70419;42.700;23.316;2023-09-18T03:02:51;18.30;68.60
80958;DHT22;70419;42.700;23.316;2023-09-18T03:05:17;18.30;68.90
80958;DHT22;70419;42.700;23.316;2023-09-18T03:07:42;18.20;68.90
80958;DHT22;70419;42.700;23.316;2023-09-18T03:10:10;18.10;69.20
80958;DHT22;70419;42.700;23.316;2023-09-18T03:12:40;18.10;69.30
80958;DHT22;70419;42.700;23.316;2023-09-18T03:15:06;18.10;69.00
80958;DHT22;70419;42.700;23.316;2023-09-18T03:17:32;18.20;68.80
80958;DHT22;70419;42.700;23.316;2023-09-18T03:19:58;18.20;68.80
80958;DHT22;70419;42.700;23.316;2023-09-18T03:22:27;18.40;68.70
80958;DHT22;70419;42.700;23.316;2023-09-18T03:24:53;18.70;66.40
80958;DHT22;70419;42.700;23.316;2023-09-18T03:27:19;18.90;65.00
80958;DHT22;70419;42.700;23.316;2023-09-18T03:29:44;18.90;65.20
80958;DHT22;70419;42.700;23.316;2023-09-18T03:32:10;18.90;65.50
80958;DHT22;70419;42.700;23.316;2023-09-18T03:34:38;18.90;65.60
80958;DHT22;70419;42.700;23.316;2023-09-18T03:37:04;18.90;65.30
80958;DHT22;70419;42.700;23.316;2023-09-18T03:39:29;18.90;65.60
80958;DHT22;70419;42.700;23.316;2023-09-18T03:41:55;18.80;65.70
80958;DHT22;70419;42.700;23.316;2023-09-18T03:44:21;18.70;65.80
80958;DHT22;70419;42.700;23.316;2023-09-18T03:46:46;18.90;65.60
80958;DHT22;70419;42.700;23.316;2023-09-18T03:49:12;18.90;65.10
80958;DHT22;70419;42.700;23.316;2023-09-18T03:51:38;19.00;65.00
80958;DHT22;70419;42.700;23.316;2023-09-18T03:54:04;19.00;64.70
80958;DHT22;70419;42.700;23.316;2023-09-18T03:56:30;19.10;64.40
80958;DHT22;70419;42.700;23.316;2023-09-18T03:58:55;19.10;64.30
80958;DHT22;70419;42.700;23.316;2023-09-18T04:01:23;19.10;64.20
80958;DHT22;70419;42.700;23.316;2023-09-18T04:03:48;19.10;64.20
80958;DHT22;70419;42.700;23.316;2023-09-18T04:06:14;19.00;64.50
80958;DHT22;70419;42.700;23.316;2023-09-18T04:08:40;19.00;64.70
80958;DHT22;70419;42.700;23.316;2023-09-18T04:11:06;19.00;64.50
80958;DHT22;70419;42.700;23.316;2023-09-18T04:13:34;19.10;64.20
80958;DHT22;70419;42.700;23.316;2023-09-18T04:16:00;19.10;64.20
80958;DHT22;70419;42.700;23.316;2023-09-18T04:18:26;19.00;64.30
80958;DHT22;70419;42.700;23.316;2023-09-18T04:20:52;19.10;64.20
80958;DHT22;70419;42.700;23.316;2023-09-18T04:23:26;19.10;64.00
80958;DHT22;70419;42.700;23.316;2023-09-18T04:25:54;19.00;64.20
80958;DHT22;70419;42.700;23.316;2023-09-18T04:28:21;19.00;64.40
80958;DHT22;70419;42.700;23.316;2023-09-18T04:30:49;19.10;64.00
80958;DHT22;70419;42.700;23.316;2023-09-18T04:33:16;19.20;63.70
80958;DHT22;70419;42.700;23.316;2023-09-18T04:35:43;19.10;63.70
80958;DHT22;70419;42.700;23.316;2023-09-18T04:38:09;19.10;63.90
80958;DHT22;70419;42.700;23.316;2023-09-18T04:40:40;19.20;64.10
80958;DHT22;70419;42.700;23.316;2023-09-18T04:43:06;19.20;64.00
80958;DHT22;70419;42.700;23.316;2023-09-18T04:45:32;19.20;62.70
80958;DHT22;70419;42.700;23.316;2023-09-18T04:47:58;19.30;63.40
80958;DHT22;70419;42.700;23.316;2023-09-18T04:50:24;19.40;63.00
80958;DHT22;70419;42.700;23.316;2023-09-18T04:52:52;19.40;62.80
80958;DHT22;70419;42.700;23.316;2023-09-18T04:55:20;19.50;62.30
80958;DHT22;70419;42.700;23.316;2023-09-18T04:57:46;19.60;62.30
80958;DHT22;70419;42.700;23.316;2023-09-18T05:00:13;19.50;62.40
80958;DHT22;70419;42.700;23.316;2023-09-18T05:02:40;19.50;62.80
80958;DHT22;70419;42.700;23.316;2023-09-18T05:05:09;19.50;63.20
80958;DHT22;70419;42.700;23.316;2023-09-18T05:07:35;19.60;62.00
80958;DHT22;70419;42.700;23.316;2023-09-18T05:10:01;19.70;61.70
80958;DHT22;70419;42.700;23.316;2023-09-18T05:12:28;19.90;61.40
80958;DHT22;70419;42.700;23.316;2023-09-18T05:14:54;19.90;61.40
80958;DHT22;70419;42.700;23.316;2023-09-18T05:20:09;19.90;61.10
80958;DHT22;70419;42.700;23.316;2023-09-18T05:22:37;20.00;61.40
80958;DHT22;70419;42.700;23.316;2023-09-18T05:25:03;20.10;60.80
80958;DHT22;70419;42.700;23.316;2023-09-18T05:27:31;20.20;60.10
80958;DHT22;70419;42.700;23.316;2023-09-18T05:29:57;20.30;60.40
80958;DHT22;70419;42.700;23.316;2023-09-18T05:32:23;20.40;59.60
80958;DHT22;70419;42.700;23.316;2023-09-18T05:34:50;20.40;59.60
80958;DHT22;70419;42.700;23.316;2023-09-18T05:37:16;20.50;59.10
80958;DHT22;70419;42.700;23.316;2023-09-18T05:39:42;20.70;58.60
80958;DHT22;70419;42.700;23.316;2023-09-18T05:42:07;20.80;58.40
80958;DHT22;70419;42.700;23.316;2023-09-18T05:44:35;20.80;58.50
80958;DHT22;70419;42.700;23.316;2023-09-18T05:47:01;20.90;58.30
80958;DHT22;70419;42.700;23.316;2023-09-18T05:49:29;21.00;58.00
80958;DHT22;70419;42.700;23.316;2023-09-18T05:51:58;21.10;57.50
80958;DHT22;70419;42.700;23.316;2023-09-18T05:54:24;21.20;57.30
80958;DHT22;70419;42.700;23.316;2023-09-18T05:56:51;21.40;56.80
80958;DHT22;70419;42.700;23.316;2023-09-18T05:59:18;21.60;56.40
80958;DHT22;70419;42.700;23.316;2023-09-18T06:01:45;22.00;55.30
80958;DHT22;70419;42.700;23.316;2023-09-18T06:04:11;22.50;55.60
80958;DHT22;70419;42.700;23.316;2023-09-18T06:06:39;22.90;52.40
80958;DHT22;70419;42.700;23.316;2023-09-18T06:09:04;23.60;51.30
80958;DHT22;70419;42.700;23.316;2023-09-18T06:11:30;24.10;48.90
80958;DHT22;70419;42.700;23.316;2023-09-18T06:13:56;24.60;47.60
80958;DHT22;70419;42.700;23.316;2023-09-18T06:16:22;25.00;46.30
80958;DHT22;70419;42.700;23.316;2023-09-18T06:18:47;25.40;44.90
80958;DHT22;70419;42.700;23.316;2023-09-18T06:21:13;26.10;43.90
80958;DHT22;70419;42.700;23.316;2023-09-18T06:23:39;26.10;43.00
80958;DHT22;70419;42.700;23.316;2023-09-18T06:26:04;26.30;43.40
80958;DHT22;70419;42.700;23.316;2023-09-18T06:28:30;25.30;44.60
80958;DHT22;70419;42.700;23.316;2023-09-18T06:30:59;24.80;46.60
80958;DHT22;70419;42.700;23.316;2023-09-18T06:33:24;24.90;46.50
80958;DHT22;70419;42.700;23.316;2023-09-18T06:35:50;25.80;46.00
80958;DHT22;70419;42.700;23.316;2023-09-18T06:38:17;26.90;41.70
80958;DHT22;70419;42.700;23.316;2023-09-18T06:40:43;27.60;39.60
80958;DHT22;70419;42.700;23.316;2023-09-18T06:43:09;28.20;37.50
80958;DHT22;70419;42.700;23.316;2023-09-18T06:45:34;28.90;36.90
80958;DHT22;70419;42.700;23.316;2023-09-18T06:48:03;29.30;35.90
80958;DHT22;70419;42.700;23.316;2023-09-18T06:50:30;29.60;36.00
80958;DHT22;70419;42.700;23.316;2023-09-18T06:52:56;29.70;35.20
80958;DHT22;70419;42.700;23.316;2023-09-18T06:55:22;29.80;34.40
80958;DHT22;70419;42.700;23.316;2023-09-18T06:57:49;30.10;34.90
80958;DHT22;70419;42.700;23.316;2023-09-18T07:00:17;29.90;34.40
80958;DHT22;70419;42.700;23.316;2023-09-18T07:02:46;30.10;35.00
80958;DHT22;70419;42.700;23.316;2023-09-18T07:05:12;30.90;34.60
80958;DHT22;70419;42.700;23.316;2023-09-18T07:07:42;31.30;32.10
80958;DHT22;70419;42.700;23.316;2023-09-18T07:10:08;31.80;31.30
80958;DHT22;70419;42.700;23.316;2023-09-18T07:12:35;32.50;30.60
80958;DHT22;70419;42.700;23.316;2023-09-18T07:15:05;32.90;30.00
80958;DHT22;70419;42.700;23.316;2023-09-18T07:17:35;33.70;28.80
80958;DHT22;70419;42.700;23.316;2023-09-18T07:20:01;34.70;28.10
80958;DHT22;70419;42.700;23.316;2023-09-18T07:22:35;35.40;27.00
80958;DHT22;70419;42.700;23.316;2023-09-18T07:25:01;36.00;26.10
80958;DHT22;70419;42.700;23.316;2023-09-18T07:27:27;36.90;25.60
80958;DHT22;70419;42.700;23.316;2023-09-18T07:29:55;37.80;24.60
80958;DHT22;70419;42.700;23.316;2023-09-18T07:32:21;38.90;23.60
80958;DHT22;70419;42.700;23.316;2023-09-18T07:34:48;39.70;22.70
80958;DHT22;70419;42.700;23.316;2023-09-18T07:37:14;39.80;22.40
80958;DHT22;70419;42.700;23.316;2023-09-18T07:39:46;40.20;21.70
80958;DHT22;70419;42.700;23.316;2023-09-18T07:42:12;38.70;22.80
80958;DHT22;70419;42.700;23.316;2023-09-18T07:44:37;38.20;23.30
80958;DHT22;70419;42.700;23.316;2023-09-18T07:47:04;37.80;24.20
80958;DHT22;70419;42.700;23.316;2023-09-18T07:49:31;38.00;23.50
80958;DHT22;70419;42.700;23.316;2023-09-18T07:51:57;38.80;23.00
80958;DHT22;70419;42.700;23.316;2023-09-18T07:54:26;39.10;22.10
80958;DHT22;70419;42.700;23.316;2023-09-18T07:56:53;39.50;22.40
80958;DHT22;70419;42.700;23.316;2023-09-18T07:59:19;39.80;21.80
80958;DHT22;70419;42.700;23.316;2023-09-18T08:01:45;40.50;21.40
80958;DHT22;70419;42.700;23.316;2023-09-18T08:04:11;41.30;20.70
80958;DHT22;70419;42.700;23.316;2023-09-18T08:06:37;41.80;19.90
80958;DHT22;70419;42.700;23.316;2023-09-18T08:09:03;42.10;19.80
80958;DHT22;70419;42.700;23.316;2023-09-18T08:11:30;41.90;19.60
80958;DHT22;70419;42.700;23.316;2023-09-18T08:13:55;42.20;19.70
80958;DHT22;70419;42.700;23.316;2023-09-18T08:16:22;42.70;19.20
80958;DHT22;70419;42.700;23.316;2023-09-18T08:18:48;43.70;18.80
80958;DHT22;70419;42.700;23.316;2023-09-18T08:21:14;44.40;18.00
80958;DHT22;70419;42.700;23.316;2023-09-18T08:23:39;44.70;17.70
80958;DHT22;70419;42.700;23.316;2023-09-18T08:26:05;44.90;17.30
80958;DHT22;70419;42.700;23.316;2023-09-18T08:28:31;45.30;17.30
80958;DHT22;70419;42.700;23.316;2023-09-18T08:30:57;45.90;16.80
80958;DHT22;70419;42.700;23.316;2023-09-18T08:33:24;46.40;16.40
80958;DHT22;70419;42.700;23.316;2023-09-18T08:35:50;46.60;16.00
80958;DHT22;70419;42.700;23.316;2023-09-18T08:38:16;46.60;16.10
80958;DHT22;70419;42.700;23.316;2023-09-18T08:40:41;46.40;16.20
80958;DHT22;70419;42.700;23.316;2023-09-18T08:43:29;47.10;16.10
80958;DHT22;70419;42.700;23.316;2023-09-18T08:46:00;47.90;15.30
80958;DHT22;70419;42.700;23.316;2023-09-18T08:48:30;48.70;14.30
80958;DHT22;70419;42.700;23.316;2023-09-18T08:51:10;49.20;14.20
80958;DHT22;70419;42.700;23.316;2023-09-18T08:53:36;48.90;14.20
80958;DHT22;70419;42.700;23.316;2023-09-18T08:56:06;48.40;14.30
80958;DHT22;70419;42.700;23.316;2023-09-18T08:58:35;48.40;14.60
80958;DHT22;70419;42.700;23.316;2023-09-18T09:01:03;48.90;14.40
80958;DHT22;70419;42.700;23.316;2023-09-18T09:03:37;49.40;14.10
80958;DHT22;70419;42.700;23.316;2023-09-18T09:06:05;50.00;13.80
80958;DHT22;70419;42.700;23.316;2023-09-18T09:08:31;50.00;13.40
80958;DHT22;70419;42.700;23.316;2023-09-18T09:10:59;50.10;13.40
80958;DHT22;70419;42.700;23.316;2023-09-18T09:13:25;50.00;13.50
80958;DHT22;70419;42.700;23.316;2023-09-18T09:15:54;50.00;13.40
80958;DHT22;70419;42.700;23.316;2023-09-18T09:18:22;50.00;13.30
80958;DHT22;70419;42.700;23.316;2023-09-18T09:21:03;50.40;13.40
80958;DHT22;70419;42.700;23.316;2023-09-18T09:26:15;49.30;13.70
80958;DHT22;70419;42.700;23.316;2023-09-18T09:28:45;49.70;13.40
80958;DHT22;70419;42.700;23.316;2023-09-18T09:31:12;50.30;13.20
80958;DHT22;70419;42.700;23.316;2023-09-18T09:33:51;51.20;12.80
80958;DHT22;70419;42.700;23.316;2023-09-18T09:36:22;51.20;12.40
80958;DHT22;70419;42.700;23.316;2023-09-18T09:38:48;47.10;14.60
80958;DHT22;70419;42.700;23.316;2023-09-18T09:41:15;44.70;16.40
80958;DHT22;70419;42.700;23.316;2023-09-18T09:43:43;44.40;16.60
80958;DHT22;70419;42.700;23.316;2023-09-18T09:46:18;46.00;15.60
80958;DHT22;70419;42.700;23.316;2023-09-18T09:51:27;44.20;16.00
80958;DHT22;70419;42.700;23.316;2023-09-18T09:53:53;41.70;17.90
80958;DHT22;70419;42.700;23.316;2023-09-18T09:56:19;41.30;18.60
80958;DHT22;70419;42.700;23.316;2023-09-18T09:59:04;42.90;17.70
80958;DHT22;70419;42.700;23.316;2023-09-18T10:01:34;42.70;17.50
80958;DHT22;70419;42.700;23.316;2023-09-18T10:04:16;42.80;17.60
80958;DHT22;70419;42.700;23.316;2023-09-18T10:06:56;44.90;16.40
80958;DHT22;70419;42.700;23.316;2023-09-18T10:09:23;46.80;14.50
80958;DHT22;70419;42.700;23.316;2023-09-18T10:11:54;47.10;14.50
80958;DHT22;70419;42.700;23.316;2023-09-18T10:14:32;48.10;13.90
80958;DHT22;70419;42.700;23.316;2023-09-18T10:17:09;48.90;13.30
80958;DHT22;70419;42.700;23.316;2023-09-18T10:22:38;49.50;13.10
80958;DHT22;70419;42.700;23.316;2023-09-18T10:25:21;49.70;13.00
80958;DHT22;70419;42.700;23.316;2023-09-18T10:27:49;49.70;12.80
80958;DHT22;70419;42.700;23.316;2023-09-18T10:30:19;50.90;12.30
80958;DHT22;70419;42.700;23.316;2023-09-18T10:32:45;49.50;13.00
80958;DHT22;70419;42.700;23.316;2023-09-18T10:35:13;47.90;13.60
80958;DHT22;70419;42.700;23.316;2023-09-18T10:37:40;49.30;13.20
80958;DHT22;70419;42.700;23.316;2023-09-18T10:40:08;51.00;12.10
80958;DHT22;70419;42.700;23.316;2023-09-18T10:42:39;52.50;11.30
80958;DHT22;70419;42.700;23.316;2023-09-18T10:45:11;53.00;10.80
80958;DHT22;70419;42.700;23.316;2023-09-18T10:47:39;49.70;12.60
80958;DHT22;70419;42.700;23.316;2023-09-18T10:50:07;49.40;12.80
80958;DHT22;70419;42.700;23.316;2023-09-18T10:52:42;48.70;13.10
80958;DHT22;70419;42.700;23.316;2023-09-18T10:55:13;49.90;12.60
80958;DHT22;70419;42.700;23.316;2023-09-18T10:57:54;49.90;12.40
80958;DHT22;70419;42.700;23.316;2023-09-18T11:00:29;48.80;13.10
80958;DHT22;70419;42.700;23.316;2023-09-18T11:03:15;49.30;13.40
80958;DHT22;70419;42.700;23.316;2023-09-18T11:05:46;50.40;11.80
80958;DHT22;70419;42.700;23.316;2023-09-18T11:08:32;50.90;11.80
80958;DHT22;70419;42.700;23.316;2023-09-18T11:11:03;51.30;11.60
80958;DHT22;70419;42.700;23.316;2023-09-18T11:13:46;51.70;11.60
80958;DHT22;70419;42.700;23.316;2023-09-18T11:18:51;48.00;13.40
80958;DHT22;70419;42.700;23.316;2023-09-18T11:21:31;46.10;14.30
80958;DHT22;70419;42.700;23.316;2023-09-18T11:23:57;45.90;14.40
80958;DHT22;70419;42.700;23.316;2023-09-18T11:26:23;47.10;13.90
80958;DHT22;70419;42.700;23.316;2023-09-18T11:28:49;49.00;12.60
80958;DHT22;70419;42.700;23.316;2023-09-18T11:31:17;50.00;12.00
80958;DHT22;70419;42.700;23.316;2023-09-18T11:33:47;51.40;11.50
80958;DHT22;70419;42.700;23.316;2023-09-18T11:36:28;51.90;11.30
80958;DHT22;70419;42.700;23.316;2023-09-18T11:39:02;52.50;10.90
80958;DHT22;70419;42.700;23.316;2023-09-18T11:41:36;52.90;10.70
80958;DHT22;70419;42.700;23.316;2023-09-18T11:46:46;52.00;11.20
80958;DHT22;70419;42.700;23.316;2023-09-18T11:49:23;52.10;11.00
80958;DHT22;70419;42.700;23.316;2023-09-18T11:51:52;51.70;10.70
80958;DHT22;70419;42.700;23.316;2023-09-18T11:54:18;51.90;11.20
80958;DHT22;70419;42.700;23.316;2023-09-18T11:56:45;52.30;11.90
80958;DHT22;70419;42.700;23.316;2023-09-18T11:59:11;50.90;11.40
80958;DHT22;70419;42.700;23.316;2023-09-18T12:01:40;50.80;11.60
80958;DHT22;70419;42.700;23.316;2023-09-18T12:04:06;51.40;11.40
80958;DHT22;70419;42.700;23.316;2023-09-18T12:06:45;47.80;13.10
80958;DHT22;70419;42.700;23.316;2023-09-18T12:09:12;46.70;14.30
80958;DHT22;70419;42.700;23.316;2023-09-18T12:11:41;46.60;14.40
80958;DHT22;70419;42.700;23.316;2023-09-18T12:14:08;47.10;14.10
80958;DHT22;70419;42.700;23.316;2023-09-18T12:16:43;46.50;13.90
80958;DHT22;70419;42.700;23.316;2023-09-18T12:19:16;45.90;14.60
80958;DHT22;70419;42.700;23.316;2023-09-18T12:21:46;47.30;14.10
80958;DHT22;70419;42.700;23.316;2023-09-18T12:24:23;49.00;13.20
80958;DHT22;70419;42.700;23.316;2023-09-18T12:26:50;50.60;12.40
80958;DHT22;70419;42.700;23.316;2023-09-18T12:29:16;50.40;12.10
80958;DHT22;70419;42.700;23.316;2023-09-18T12:31:42;47.90;13.10
80958;DHT22;70419;42.700;23.316;2023-09-18T12:34:18;45.20;14.70
80958;DHT22;70419;42.700;23.316;2023-09-18T12:36:44;42.80;16.40
80958;DHT22;70419;42.700;23.316;2023-09-18T12:39:14;41.10;17.70
80958;DHT22;70419;42.700;23.316;2023-09-18T12:41:46;40.70;17.90
80958;DHT22;70419;42.700;23.316;2023-09-18T12:44:13;41.70;17.40
80958;DHT22;70419;42.700;23.316;2023-09-18T12:46:43;43.50;15.80
80958;DHT22;70419;42.700;23.316;2023-09-18T12:49:19;45.70;15.00
80958;DHT22;70419;42.700;23.316;2023-09-18T12:51:58;47.40;13.50
80958;DHT22;70419;42.700;23.316;2023-09-18T12:54:44;48.30;13.30
80958;DHT22;70419;42.700;23.316;2023-09-18T12:57:19;47.00;13.60
80958;DHT22;70419;42.700;23.316;2023-09-18T12:59:46;45.50;14.40
80958;DHT22;70419;42.700;23.316;2023-09-18T13:02:17;45.20;14.90
80958;DHT22;70419;42.700;23.316;2023-09-18T13:04:51;44.20;15.20
80958;DHT22;70419;42.700;23.316;2023-09-18T13:07:17;44.20;15.20
80958;DHT22;70419;42.700;23.316;2023-09-18T13:10:05;45.50;14.50
80958;DHT22;70419;42.700;23.316;2023-09-18T13:12:51;45.80;14.10
80958;DHT22;70419;42.700;23.316;2023-09-18T13:15:28;45.20;14.70
80958;DHT22;70419;42.700;23.316;2023-09-18T13:17:56;42.30;16.40
80958;DHT22;70419;42.700;23.316;2023-09-18T13:20:29;41.30;17.30
80958;DHT22;70419;42.700;23.316;2023-09-18T13:22:56;42.20;17.30
80958;DHT22;70419;42.700;23.316;2023-09-18T13:25:30;41.60;17.40
80958;DHT22;70419;42.700;23.316;2023-09-18T13:27:56;41.90;17.50
80958;DHT22;70419;42.700;23.316;2023-09-18T13:30:22;41.30;17.60
80958;DHT22;70419;42.700;23.316;2023-09-18T13:32:50;40.40;17.20
80958;DHT22;70419;42.700;23.316;2023-09-18T13:35:17;38.30;19.50
80958;DHT22;70419;42.700;23.316;2023-09-18T13:37:44;38.90;19.80
80958;DHT22;70419;42.700;23.316;2023-09-18T13:40:11;40.20;17.70
80958;DHT22;70419;42.700;23.316;2023-09-18T13:42:39;40.30;17.70
80958;DHT22;70419;42.700;23.316;2023-09-18T13:45:06;40.70;17.70
80958;DHT22;70419;42.700;23.316;2023-09-18T13:47:33;41.70;17.20
80958;DHT22;70419;42.700;23.316;2023-09-18T13:50:00;43.30;16.20
80958;DHT22;70419;42.700;23.316;2023-09-18T13:52:27;43.70;15.50
80958;DHT22;70419;42.700;23.316;2023-09-18T13:54:53;44.00;15.20
80958;DHT22;70419;42.700;23.316;2023-09-18T13:57:19;44.70;14.90
80958;DHT22;70419;42.700;23.316;2023-09-18T13:59:47;45.10;14.70
80958;DHT22;70419;42.700;23.316;2023-09-18T14:02:14;45.30;14.60
80958;DHT22;70419;42.700;23.316;2023-09-18T14:04:43;45.80;14.30
80958;DHT22;70419;42.700;23.316;2023-09-18T14:07:10;46.10;13.70
80958;DHT22;70419;42.700;23.316;2023-09-18T14:09:37;45.80;14.00
80958;DHT22;70419;42.700;23.316;2023-09-18T14:12:03;45.60;14.30
80958;DHT22;70419;42.700;23.316;2023-09-18T14:14:29;45.70;14.20
80958;DHT22;70419;42.700;23.316;2023-09-18T14:16:55;45.10;14.20
80958;DHT22;70419;42.700;23.316;2023-09-18T14:19:21;43.60;15.60
80958;DHT22;70419;42.700;23.316;2023-09-18T14:21:47;42.30;16.30
80958;DHT22;70419;42.700;23.316;2023-09-18T14:24:15;40.50;17.70
80958;DHT22;70419;42.700;23.316;2023-09-18T14:26:43;41.00;17.90
80958;DHT22;70419;42.700;23.316;2023-09-18T14:29:10;41.90;17.10
80958;DHT22;70419;42.700;23.316;2023-09-18T14:31:37;42.60;17.80
80958;DHT22;70419;42.700;23.316;2023-09-18T14:34:03;43.40;16.80
80958;DHT22;70419;42.700;23.316;2023-09-18T14:36:35;44.10;16.10
80958;DHT22;70419;42.700;23.316;2023-09-18T14:39:02;43.60;16.40
80958;DHT22;70419;42.700;23.316;2023-09-18T14:41:28;41.70;17.20
80958;DHT22;70419;42.700;23.316;2023-09-18T14:43:53;40.30;18.70
80958;DHT22;70419;42.700;23.316;2023-09-18T14:46:20;39.00;19.50
80958;DHT22;70419;42.700;23.316;2023-09-18T14:48:47;37.50;20.60
80958;DHT22;70419;42.700;23.316;2023-09-18T14:51:13;37.00;20.90
80958;DHT22;70419;42.700;23.316;2023-09-18T14:53:38;36.40;21.60
80958;DHT22;70419;42.700;23.316;2023-09-18T14:56:04;35.50;22.40
80958;DHT22;70419;42.700;23.316;2023-09-18T14:58:30;34.90;23.10
80958;DHT22;70419;42.700;23.316;2023-09-18T15:00:57;34.30;23.80
80958;DHT22;70419;42.700;23.316;2023-09-18T15:03:23;33.60;24.70
80958;DHT22;70419;42.700;23.316;2023-09-18T15:05:52;32.80;25.10
80958;DHT22;70419;42.700;23.316;2023-09-18T15:08:20;32.20;25.80
80958;DHT22;70419;42.700;23.316;2023-09-18T15:10:46;31.10;27.30
80958;DHT22;70419;42.700;23.316;2023-09-18T15:13:14;30.60;27.90
80958;DHT22;70419;42.700;23.316;2023-09-18T15:15:44;30.20;28.30
80958;DHT22;70419;42.700;23.316;2023-09-18T15:18:11;29.90;28.80
80958;DHT22;70419;42.700;23.316;2023-09-18T15:20:37;29.70;29.00
80958;DHT22;70419;42.700;23.316;2023-09-18T15:23:05;29.50;29.70
80958;DHT22;70419;42.700;23.316;2023-09-18T15:25:32;29.30;29.90
80958;DHT22;70419;42.700;23.316;2023-09-18T15:28:03;29.40;30.30
80958;DHT22;70419;42.700;23.316;2023-09-18T15:30:29;29.30;30.10
80958;DHT22;70419;42.700;23.316;2023-09-18T15:32:55;29.20;30.70
80958;DHT22;70419;42.700;23.316;2023-09-18T15:35:22;29.10;30.80
80958;DHT22;70419;42.700;23.316;2023-09-18T15:37:51;29.10;30.90